sensor_id;sensor_type;location;lat;lon;timestamp;P1;durP1;ratioP1;P2;durP2;ratioP2
25341;SDS011;13298;48.792;9.154;2023-11-19T00:00:31;1.92;;;1.40;;
25341;SDS011;13298;48.792;9.154;2023-11-19T00:02:56;1.88;;;1.48;;
25341;SDS011;13298;48.792;9.154;2023-11-19T00:05:22;1.75;;;1.15;;
25341;SDS011;13298;48.792;9.154;2023-11-19T00:07:48;3.63;;;1.20;;
25341;SDS011;13298;48.792;9.154;2023-11-19T00:10:14;2.03;;;1.20;;
25341;SDS011;13298;48.792;9.154;2023-11-19T00:12:44;3.50;;;1.10;;
25341;SDS011;13298;48.792;9.154;2023-11-19T00:15:14;2.55;;;1.10;;
25341;SDS011;13298;48.792;9.154;2023-11-19T00:17:44;1.70;;;1.13;;
25341;SDS011;13298;48.792;9.154;2023-11-19T00:20:14;1.80;;;1.08;;
25341;SDS011;13298;48.792;9.154;2023-11-19T00:22:44;1.25;;;0.90;;
25341;SDS011;13298;48.792;9.154;2023-11-19T00:25:19;1.15;;;0.80;;
25341;SDS011;13298;48.792;9.154;2023-11-19T00:27:48;1.13;;;0.90;;
25341;SDS011;13298;48.792;9.154;2023-11-19T00:30:16;0.93;;;0.63;;
25341;SDS011;13298;48.792;9.154;2023-11-19T00:32:42;0.70;;;0.60;;
25341;SDS011;13298;48.792;9.154;2023-11-19T00:35:07;1.17;;;0.70;;
25341;SDS011;13298;48.792;9.154;2023-11-19T00:37:39;2.92;;;0.80;;
25341;SDS011;13298;48.792;9.154;2023-11-19T00:40:05;0.60;;;0.60;;
25341;SDS011;13298;48.792;9.154;2023-11-19T00:42:31;1.17;;;0.70;;
25341;SDS011;13298;48.792;9.154;2023-11-19T00:44:57;1.13;;;0.82;;
25341;SDS011;13298;48.792;9.154;2023-11-19T00:47:23;0.98;;;0.70;;
25341;SDS011;13298;48.792;9.154;2023-11-19T00:49:48;1.00;;;0.70;;
25341;SDS011;13298;48.792;9.154;2023-11-19T00:52:15;1.52;;;0.80;;
25341;SDS011;13298;48.792;9.154;2023-11-19T00:54:42;0.70;;;0.55;;
25341;SDS011;13298;48.792;9.154;2023-11-19T00:57:08;3.53;;;0.80;;
25341;SDS011;13298;48.792;9.154;2023-11-19T00:59:34;1.83;;;0.70;;
25341;SDS011;13298;48.792;9.154;2023-11-19T01:01:59;2.28;;;0.80;;
25341;SDS011;13298;48.792;9.154;2023-11-19T01:04:34;1.33;;;0.70;;
25341;SDS011;13298;48.792;9.154;2023-11-19T01:07:04;2.47;;;0.65;;
25341;SDS011;13298;48.792;9.154;2023-11-19T01:09:31;1.55;;;0.65;;
25341;SDS011;13298;48.792;9.154;2023-11-19T01:11:58;2.03;;;0.80;;
25341;SDS011;13298;48.792;9.154;2023-11-19T01:14:25;0.77;;;0.60;;
25341;SDS011;13298;48.792;9.154;2023-11-19T01:16:52;0.65;;;0.50;;
25341;SDS011;13298;48.792;9.154;2023-11-19T01:19:19;0.63;;;0.38;;
25341;SDS011;13298;48.792;9.154;2023-11-19T01:21:46;0.60;;;0.50;;
25341;SDS011;13298;48.792;9.154;2023-11-19T01:24:12;1.55;;;0.50;;
25341;SDS011;13298;48.792;9.154;2023-11-19T01:26:39;6.93;;;0.55;;
25341;SDS011;13298;48.792;9.154;2023-11-19T01:29:10;0.52;;;0.38;;
25341;SDS011;13298;48.792;9.154;2023-11-19T01:31:39;1.83;;;0.60;;
25341;SDS011;13298;48.792;9.154;2023-11-19T01:34:06;0.40;;;0.40;;
25341;SDS011;13298;48.792;9.154;2023-11-19T01:36:32;2.70;;;0.40;;
25341;SDS011;13298;48.792;9.154;2023-11-19T01:38:57;1.17;;;0.30;;
25341;SDS011;13298;48.792;9.154;2023-11-19T01:41:23;1.58;;;0.40;;
25341;SDS011;13298;48.792;9.154;2023-11-19T01:43:49;0.52;;;0.30;;
25341;SDS011;13298;48.792;9.154;2023-11-19T01:46:15;1.15;;;0.32;;
25341;SDS011;13298;48.792;9.154;2023-11-19T01:48:42;1.00;;;0.32;;
25341;SDS011;13298;48.792;9.154;2023-11-19T01:51:11;0.25;;;0.25;;
25341;SDS011;13298;48.792;9.154;2023-11-19T01:53:41;1.35;;;0.30;;
25341;SDS011;13298;48.792;9.154;2023-11-19T01:56:09;0.57;;;0.30;;
25341;SDS011;13298;48.792;9.154;2023-11-19T01:58:37;0.88;;;0.32;;
25341;SDS011;13298;48.792;9.154;2023-11-19T02:01:04;0.77;;;0.40;;
25341;SDS011;13298;48.792;9.154;2023-11-19T02:03:33;2.40;;;0.40;;
25341;SDS011;13298;48.792;9.154;2023-11-19T02:05:59;0.40;;;0.20;;
25341;SDS011;13298;48.792;9.154;2023-11-19T02:08:26;0.32;;;0.30;;
25341;SDS011;13298;48.792;9.154;2023-11-19T02:10:52;1.65;;;0.20;;
25341;SDS011;13298;48.792;9.154;2023-11-19T02:13:19;0.38;;;0.30;;
25341;SDS011;13298;48.792;9.154;2023-11-19T02:15:45;0.22;;;0.22;;
25341;SDS011;13298;48.792;9.154;2023-11-19T02:18:21;0.70;;;0.30;;
25341;SDS011;13298;48.792;9.154;2023-11-19T02:20:52;0.77;;;0.40;;
25341;SDS011;13298;48.792;9.154;2023-11-19T02:23:19;0.43;;;0.25;;
25341;SDS011;13298;48.792;9.154;2023-11-19T02:25:59;0.20;;;0.15;;
25341;SDS011;13298;48.792;9.154;2023-11-19T02:28:27;0.22;;;0.20;;
25341;SDS011;13298;48.792;9.154;2023-11-19T02:30:53;0.28;;;0.20;;
25341;SDS011;13298;48.792;9.154;2023-11-19T02:33:18;0.40;;;0.30;;
25341;SDS011;13298;48.792;9.154;2023-11-19T02:35:44;0.20;;;0.20;;
25341;SDS011;13298;48.792;9.154;2023-11-19T02:38:10;0.45;;;0.20;;
25341;SDS011;13298;48.792;9.154;2023-11-19T02:40:36;0.32;;;0.30;;
25341;SDS011;13298;48.792;9.154;2023-11-19T02:43:01;0.22;;;0.20;;
25341;SDS011;13298;48.792;9.154;2023-11-19T02:45:30;0.20;;;0.20;;
25341;SDS011;13298;48.792;9.154;2023-11-19T02:47:56;0.17;;;0.17;;
25341;SDS011;13298;48.792;9.154;2023-11-19T02:50:21;0.68;;;0.30;;
25341;SDS011;13298;48.792;9.154;2023-11-19T02:52:51;0.38;;;0.28;;
25341;SDS011;13298;48.792;9.154;2023-11-19T02:55:21;0.43;;;0.28;;
25341;SDS011;13298;48.792;9.154;2023-11-19T02:57:49;0.63;;;0.28;;
25341;SDS011;13298;48.792;9.154;2023-11-19T03:00:16;0.38;;;0.30;;
25341;SDS011;13298;48.792;9.154;2023-11-19T03:02:43;2.55;;;0.40;;
25341;SDS011;13298;48.792;9.154;2023-11-19T03:05:13;0.30;;;0.30;;
25341;SDS011;13298;48.792;9.154;2023-11-19T03:07:40;1.05;;;0.30;;
25341;SDS011;13298;48.792;9.154;2023-11-19T03:10:08;3.40;;;0.20;;
25341;SDS011;13298;48.792;9.154;2023-11-19T03:12:38;0.20;;;0.20;;
25341;SDS011;13298;48.792;9.154;2023-11-19T03:15:09;3.00;;;0.20;;
25341;SDS011;13298;48.792;9.154;2023-11-19T03:17:35;1.00;;;0.30;;
25341;SDS011;13298;48.792;9.154;2023-11-19T03:20:04;0.20;;;0.20;;
25341;SDS011;13298;48.792;9.154;2023-11-19T03:22:32;0.20;;;0.20;;
25341;SDS011;13298;48.792;9.154;2023-11-19T03:25:00;0.38;;;0.20;;
25341;SDS011;13298;48.792;9.154;2023-11-19T03:27:26;0.50;;;0.10;;
25341;SDS011;13298;48.792;9.154;2023-11-19T03:29:52;0.13;;;0.10;;
25341;SDS011;13298;48.792;9.154;2023-11-19T03:32:17;0.20;;;0.10;;
25341;SDS011;13298;48.792;9.154;2023-11-19T03:34:43;0.20;;;0.13;;
25341;SDS011;13298;48.792;9.154;2023-11-19T03:37:09;1.48;;;0.20;;
25341;SDS011;13298;48.792;9.154;2023-11-19T03:39:35;0.52;;;0.20;;
25341;SDS011;13298;48.792;9.154;2023-11-19T03:42:00;0.10;;;0.10;;
25341;SDS011;13298;48.792;9.154;2023-11-19T03:44:27;6.65;;;0.30;;
25341;SDS011;13298;48.792;9.154;2023-11-19T03:46:52;0.10;;;0.05;;
25341;SDS011;13298;48.792;9.154;2023-11-19T03:49:18;0.15;;;0.15;;
25341;SDS011;13298;48.792;9.154;2023-11-19T03:51:43;0.20;;;0.20;;
25341;SDS011;13298;48.792;9.154;2023-11-19T03:54:09;0.10;;;0.10;;
25341;SDS011;13298;48.792;9.154;2023-11-19T03:56:36;0.30;;;0.15;;
25341;SDS011;13298;48.792;9.154;2023-11-19T03:59:02;0.63;;;0.20;;
25341;SDS011;13298;48.792;9.154;2023-11-19T04:01:28;0.45;;;0.28;;
25341;SDS011;13298;48.792;9.154;2023-11-19T04:03:53;0.10;;;0.10;;
25341;SDS011;13298;48.792;9.154;2023-11-19T04:06:21;1.63;;;0.20;;
25341;SDS011;13298;48.792;9.154;2023-11-19T04:08:46;0.05;;;0.05;;
25341;SDS011;13298;48.792;9.154;2023-11-19T04:11:12;2.55;;;0.13;;
25341;SDS011;13298;48.792;9.154;2023-11-19T04:13:38;0.17;;;0.17;;
25341;SDS011;13298;48.792;9.154;2023-11-19T04:16:04;0.20;;;0.10;;
25341;SDS011;13298;48.792;9.154;2023-11-19T04:18:29;0.30;;;0.10;;
25341;SDS011;13298;48.792;9.154;2023-11-19T04:20:57;0.10;;;0.10;;
25341;SDS011;13298;48.792;9.154;2023-11-19T04:23:22;0.95;;;0.38;;
25341;SDS011;13298;48.792;9.154;2023-11-19T04:25:49;0.32;;;0.20;;
25341;SDS011;13298;48.792;9.154;2023-11-19T04:28:15;0.10;;;0.10;;
25341;SDS011;13298;48.792;9.154;2023-11-19T04:30:41;0.35;;;0.32;;
25341;SDS011;13298;48.792;9.154;2023-11-19T04:33:07;0.88;;;0.35;;
25341;SDS011;13298;48.792;9.154;2023-11-19T04:35:32;0.57;;;0.30;;
25341;SDS011;13298;48.792;9.154;2023-11-19T04:37:58;0.95;;;0.20;;
25341;SDS011;13298;48.792;9.154;2023-11-19T04:40:24;0.20;;;0.10;;
25341;SDS011;13298;48.792;9.154;2023-11-19T04:42:50;0.32;;;0.10;;
25341;SDS011;13298;48.792;9.154;2023-11-19T04:45:16;0.20;;;0.20;;
25341;SDS011;13298;48.792;9.154;2023-11-19T04:47:43;0.13;;;0.10;;
25341;SDS011;13298;48.792;9.154;2023-11-19T04:50:09;0.85;;;0.32;;
25341;SDS011;13298;48.792;9.154;2023-11-19T04:52:37;0.20;;;0.15;;
25341;SDS011;13298;48.792;9.154;2023-11-19T04:55:07;0.15;;;0.15;;
25341;SDS011;13298;48.792;9.154;2023-11-19T04:57:36;0.65;;;0.20;;
25341;SDS011;13298;48.792;9.154;2023-11-19T05:00:02;3.45;;;0.30;;
25341;SDS011;13298;48.792;9.154;2023-11-19T05:02:30;0.10;;;0.10;;
25341;SDS011;13298;48.792;9.154;2023-11-19T05:04:55;0.20;;;0.10;;
25341;SDS011;13298;48.792;9.154;2023-11-19T05:07:21;0.32;;;0.22;;
25341;SDS011;13298;48.792;9.154;2023-11-19T05:09:47;0.40;;;0.40;;
25341;SDS011;13298;48.792;9.154;2023-11-19T05:12:13;0.10;;;0.10;;
25341;SDS011;13298;48.792;9.154;2023-11-19T05:14:38;0.10;;;0.10;;
25341;SDS011;13298;48.792;9.154;2023-11-19T05:17:04;0.25;;;0.25;;
25341;SDS011;13298;48.792;9.154;2023-11-19T05:19:30;0.10;;;0.10;;
25341;SDS011;13298;48.792;9.154;2023-11-19T05:21:56;0.25;;;0.20;;
25341;SDS011;13298;48.792;9.154;2023-11-19T05:24:22;0.90;;;0.10;;
25341;SDS011;13298;48.792;9.154;2023-11-19T05:26:48;0.75;;;0.20;;
25341;SDS011;13298;48.792;9.154;2023-11-19T05:29:15;0.10;;;0.10;;
25341;SDS011;13298;48.792;9.154;2023-11-19T05:31:41;0.75;;;0.20;;
25341;SDS011;13298;48.792;9.154;2023-11-19T05:34:07;0.00;;;0.00;;
25341;SDS011;13298;48.792;9.154;2023-11-19T05:36:33;0.20;;;0.20;;
25341;SDS011;13298;48.792;9.154;2023-11-19T05:38:58;0.65;;;0.20;;
25341;SDS011;13298;48.792;9.154;2023-11-19T05:41:24;0.20;;;0.20;;
25341;SDS011;13298;48.792;9.154;2023-11-19T05:43:50;0.60;;;0.40;;
25341;SDS011;13298;48.792;9.154;2023-11-19T05:46:16;1.42;;;0.30;;
25341;SDS011;13298;48.792;9.154;2023-11-19T05:48:42;0.20;;;0.20;;
25341;SDS011;13298;48.792;9.154;2023-11-19T05:51:07;0.20;;;0.20;;
25341;SDS011;13298;48.792;9.154;2023-11-19T05:53:33;0.13;;;0.13;;
25341;SDS011;13298;48.792;9.154;2023-11-19T05:55:59;0.00;;;0.00;;
25341;SDS011;13298;48.792;9.154;2023-11-19T05:58:28;1.02;;;0.30;;
25341;SDS011;13298;48.792;9.154;2023-11-19T06:00:55;0.32;;;0.30;;
25341;SDS011;13298;48.792;9.154;2023-11-19T06:03:22;1.40;;;0.20;;
25341;SDS011;13298;48.792;9.154;2023-11-19T06:05:48;0.17;;;0.10;;
25341;SDS011;13298;48.792;9.154;2023-11-19T06:08:14;0.65;;;0.25;;
25341;SDS011;13298;48.792;9.154;2023-11-19T06:10:41;2.45;;;0.25;;
25341;SDS011;13298;48.792;9.154;2023-11-19T06:13:11;3.20;;;0.20;;
25341;SDS011;13298;48.792;9.154;2023-11-19T06:15:40;0.20;;;0.17;;
25341;SDS011;13298;48.792;9.154;2023-11-19T06:18:07;0.00;;;0.00;;
25341;SDS011;13298;48.792;9.154;2023-11-19T06:20:33;0.15;;;0.10;;
25341;SDS011;13298;48.792;9.154;2023-11-19T06:22:59;0.22;;;0.22;;
25341;SDS011;13298;48.792;9.154;2023-11-19T06:25:25;0.30;;;0.30;;
25341;SDS011;13298;48.792;9.154;2023-11-19T06:27:52;0.68;;;0.10;;
25341;SDS011;13298;48.792;9.154;2023-11-19T06:30:18;0.17;;;0.17;;
25341;SDS011;13298;48.792;9.154;2023-11-19T06:32:44;0.10;;;0.10;;
25341;SDS011;13298;48.792;9.154;2023-11-19T06:35:10;0.73;;;0.20;;
25341;SDS011;13298;48.792;9.154;2023-11-19T06:37:38;1.85;;;0.45;;
25341;SDS011;13298;48.792;9.154;2023-11-19T06:40:04;0.52;;;0.20;;
25341;SDS011;13298;48.792;9.154;2023-11-19T06:42:30;0.45;;;0.30;;
25341;SDS011;13298;48.792;9.154;2023-11-19T06:44:56;0.90;;;0.20;;
25341;SDS011;13298;48.792;9.154;2023-11-19T06:47:22;0.13;;;0.13;;
25341;SDS011;13298;48.792;9.154;2023-11-19T06:49:52;1.98;;;0.25;;
25341;SDS011;13298;48.792;9.154;2023-11-19T06:52:18;0.50;;;0.20;;
25341;SDS011;13298;48.792;9.154;2023-11-19T06:54:44;0.47;;;0.25;;
25341;SDS011;13298;48.792;9.154;2023-11-19T06:57:10;0.20;;;0.20;;
25341;SDS011;13298;48.792;9.154;2023-11-19T06:59:36;0.10;;;0.10;;
25341;SDS011;13298;48.792;9.154;2023-11-19T07:02:03;0.10;;;0.10;;
25341;SDS011;13298;48.792;9.154;2023-11-19T07:04:29;2.40;;;0.20;;
25341;SDS011;13298;48.792;9.154;2023-11-19T07:06:56;0.13;;;0.10;;
25341;SDS011;13298;48.792;9.154;2023-11-19T07:09:22;0.22;;;0.22;;
25341;SDS011;13298;48.792;9.154;2023-11-19T07:11:48;0.15;;;0.15;;
25341;SDS011;13298;48.792;9.154;2023-11-19T07:14:17;0.25;;;0.20;;
25341;SDS011;13298;48.792;9.154;2023-11-19T07:16:43;2.20;;;0.30;;
25341;SDS011;13298;48.792;9.154;2023-11-19T07:19:09;0.85;;;0.20;;
25341;SDS011;13298;48.792;9.154;2023-11-19T07:21:35;0.45;;;0.20;;
25341;SDS011;13298;48.792;9.154;2023-11-19T07:24:04;0.40;;;0.30;;
25341;SDS011;13298;48.792;9.154;2023-11-19T07:26:30;0.40;;;0.20;;
25341;SDS011;13298;48.792;9.154;2023-11-19T07:28:56;0.68;;;0.28;;
25341;SDS011;13298;48.792;9.154;2023-11-19T07:31:23;0.10;;;0.10;;
25341;SDS011;13298;48.792;9.154;2023-11-19T07:33:49;1.75;;;0.30;;
25341;SDS011;13298;48.792;9.154;2023-11-19T07:36:15;0.40;;;0.20;;
25341;SDS011;13298;48.792;9.154;2023-11-19T07:38:41;1.00;;;0.40;;
25341;SDS011;13298;48.792;9.154;2023-11-19T07:41:07;0.43;;;0.22;;
25341;SDS011;13298;48.792;9.154;2023-11-19T07:43:38;0.10;;;0.10;;
25341;SDS011;13298;48.792;9.154;2023-11-19T07:46:10;0.10;;;0.10;;
25341;SDS011;13298;48.792;9.154;2023-11-19T07:48:37;1.20;;;0.40;;
25341;SDS011;13298;48.792;9.154;2023-11-19T07:51:04;0.47;;;0.15;;
25341;SDS011;13298;48.792;9.154;2023-11-19T07:53:30;0.22;;;0.22;;
25341;SDS011;13298;48.792;9.154;2023-11-19T07:55:55;1.98;;;0.40;;
25341;SDS011;13298;48.792;9.154;2023-11-19T07:58:21;0.30;;;0.30;;
25341;SDS011;13298;48.792;9.154;2023-11-19T08:00:47;0.75;;;0.30;;
25341;SDS011;13298;48.792;9.154;2023-11-19T08:03:12;0.30;;;0.30;;
25341;SDS011;13298;48.792;9.154;2023-11-19T08:05:38;0.35;;;0.25;;
25341;SDS011;13298;48.792;9.154;2023-11-19T08:08:04;0.20;;;0.20;;
25341;SDS011;13298;48.792;9.154;2023-11-19T08:10:30;0.70;;;0.20;;
25341;SDS011;13298;48.792;9.154;2023-11-19T08:12:58;0.10;;;0.10;;
25341;SDS011;13298;48.792;9.154;2023-11-19T08:15:23;0.65;;;0.45;;
25341;SDS011;13298;48.792;9.154;2023-11-19T08:17:49;0.70;;;0.38;;
25341;SDS011;13298;48.792;9.154;2023-11-19T08:20:16;0.20;;;0.15;;
25341;SDS011;13298;48.792;9.154;2023-11-19T08:22:41;0.30;;;0.10;;
25341;SDS011;13298;48.792;9.154;2023-11-19T08:25:07;0.10;;;0.10;;
25341;SDS011;13298;48.792;9.154;2023-11-19T08:27:33;1.45;;;0.43;;
25341;SDS011;13298;48.792;9.154;2023-11-19T08:29:59;0.45;;;0.28;;
25341;SDS011;13298;48.792;9.154;2023-11-19T08:32:28;1.83;;;0.30;;
25341;SDS011;13298;48.792;9.154;2023-11-19T08:34:54;0.30;;;0.20;;
25341;SDS011;13298;48.792;9.154;2023-11-19T08:37:20;0.30;;;0.20;;
25341;SDS011;13298;48.792;9.154;2023-11-19T08:39:47;1.08;;;0.20;;
25341;SDS011;13298;48.792;9.154;2023-11-19T08:42:13;0.20;;;0.20;;
25341;SDS011;13298;48.792;9.154;2023-11-19T08:44:39;0.20;;;0.20;;
25341;SDS011;13298;48.792;9.154;2023-11-19T08:47:09;0.25;;;0.20;;
25341;SDS011;13298;48.792;9.154;2023-11-19T08:49:36;0.20;;;0.20;;
25341;SDS011;13298;48.792;9.154;2023-11-19T08:52:02;0.93;;;0.40;;
25341;SDS011;13298;48.792;9.154;2023-11-19T08:54:27;0.55;;;0.40;;
25341;SDS011;13298;48.792;9.154;2023-11-19T08:56:53;1.45;;;0.30;;
25341;SDS011;13298;48.792;9.154;2023-11-19T08:59:19;0.45;;;0.40;;
25341;SDS011;13298;48.792;9.154;2023-11-19T09:01:44;0.45;;;0.30;;
25341;SDS011;13298;48.792;9.154;2023-11-19T09:04:10;0.43;;;0.30;;
25341;SDS011;13298;48.792;9.154;2023-11-19T09:06:36;0.57;;;0.40;;
25341;SDS011;13298;48.792;9.154;2023-11-19T09:09:02;1.25;;;0.30;;
25341;SDS011;13298;48.792;9.154;2023-11-19T09:11:30;1.15;;;0.60;;
25341;SDS011;13298;48.792;9.154;2023-11-19T09:13:56;2.42;;;0.35;;
25341;SDS011;13298;48.792;9.154;2023-11-19T09:16:22;0.30;;;0.30;;
25341;SDS011;13298;48.792;9.154;2023-11-19T09:18:48;0.28;;;0.22;;
25341;SDS011;13298;48.792;9.154;2023-11-19T09:21:13;2.38;;;0.40;;
25341;SDS011;13298;48.792;9.154;2023-11-19T09:23:39;1.00;;;0.22;;
25341;SDS011;13298;48.792;9.154;2023-11-19T09:26:05;0.45;;;0.32;;
25341;SDS011;13298;48.792;9.154;2023-11-19T09:28:31;0.30;;;0.30;;
25341;SDS011;13298;48.792;9.154;2023-11-19T09:30:58;0.60;;;0.45;;
25341;SDS011;13298;48.792;9.154;2023-11-19T09:33:24;2.22;;;0.57;;
25341;SDS011;13298;48.792;9.154;2023-11-19T09:35:50;1.00;;;0.30;;
25341;SDS011;13298;48.792;9.154;2023-11-19T09:38:16;0.32;;;0.30;;
25341;SDS011;13298;48.792;9.154;2023-11-19T09:40:42;0.20;;;0.20;;
25341;SDS011;13298;48.792;9.154;2023-11-19T09:43:07;0.38;;;0.30;;
25341;SDS011;13298;48.792;9.154;2023-11-19T09:45:39;1.05;;;0.30;;
25341;SDS011;13298;48.792;9.154;2023-11-19T09:48:16;0.38;;;0.30;;
25341;SDS011;13298;48.792;9.154;2023-11-19T09:50:44;0.47;;;0.35;;
25341;SDS011;13298;48.792;9.154;2023-11-19T09:53:12;0.50;;;0.28;;
25341;SDS011;13298;48.792;9.154;2023-11-19T09:55:38;1.42;;;0.45;;
25341;SDS011;13298;48.792;9.154;2023-11-19T09:58:04;4.55;;;0.65;;
25341;SDS011;13298;48.792;9.154;2023-11-19T10:00:31;0.75;;;0.50;;
25341;SDS011;13298;48.792;9.154;2023-11-19T10:02:57;1.00;;;0.40;;
25341;SDS011;13298;48.792;9.154;2023-11-19T10:05:25;0.75;;;0.52;;
25341;SDS011;13298;48.792;9.154;2023-11-19T10:07:51;1.02;;;0.50;;
25341;SDS011;13298;48.792;9.154;2023-11-19T10:10:18;0.90;;;0.50;;
25341;SDS011;13298;48.792;9.154;2023-11-19T10:12:47;0.93;;;0.50;;
25341;SDS011;13298;48.792;9.154;2023-11-19T10:15:22;0.60;;;0.30;;
25341;SDS011;13298;48.792;9.154;2023-11-19T10:17:51;1.00;;;0.43;;
25341;SDS011;13298;48.792;9.154;2023-11-19T10:20:21;0.80;;;0.50;;
25341;SDS011;13298;48.792;9.154;2023-11-19T10:22:47;0.77;;;0.40;;
25341;SDS011;13298;48.792;9.154;2023-11-19T10:25:23;1.33;;;0.40;;
25341;SDS011;13298;48.792;9.154;2023-11-19T10:27:51;1.08;;;0.50;;
25341;SDS011;13298;48.792;9.154;2023-11-19T10:30:24;2.88;;;0.47;;
25341;SDS011;13298;48.792;9.154;2023-11-19T10:35:52;1.20;;;0.68;;
25341;SDS011;13298;48.792;9.154;2023-11-19T10:38:22;0.85;;;0.40;;
25341;SDS011;13298;48.792;9.154;2023-11-19T10:40:49;0.73;;;0.40;;
25341;SDS011;13298;48.792;9.154;2023-11-19T10:43:16;2.92;;;0.70;;
25341;SDS011;13298;48.792;9.154;2023-11-19T10:45:43;1.45;;;0.40;;
25341;SDS011;13298;48.792;9.154;2023-11-19T10:48:09;1.10;;;0.30;;
25341;SDS011;13298;48.792;9.154;2023-11-19T10:50:37;0.82;;;0.25;;
25341;SDS011;13298;48.792;9.154;2023-11-19T10:53:05;2.33;;;0.47;;
25341;SDS011;13298;48.792;9.154;2023-11-19T10:55:34;0.82;;;0.30;;
25341;SDS011;13298;48.792;9.154;2023-11-19T11:00:34;0.80;;;0.40;;
25341;SDS011;13298;48.792;9.154;2023-11-19T11:03:24;3.00;;;0.28;;
25341;SDS011;13298;48.792;9.154;2023-11-19T11:05:52;2.72;;;0.47;;
25341;SDS011;13298;48.792;9.154;2023-11-19T11:08:19;0.85;;;0.28;;
25341;SDS011;13298;48.792;9.154;2023-11-19T11:10:48;4.10;;;0.50;;
25341;SDS011;13298;48.792;9.154;2023-11-19T11:13:20;1.92;;;0.60;;
25341;SDS011;13298;48.792;9.154;2023-11-19T11:15:49;1.45;;;0.30;;
25341;SDS011;13298;48.792;9.154;2023-11-19T11:18:16;1.25;;;0.20;;
25341;SDS011;13298;48.792;9.154;2023-11-19T11:20:46;1.73;;;0.50;;
25341;SDS011;13298;48.792;9.154;2023-11-19T11:23:20;2.13;;;0.38;;
25341;SDS011;13298;48.792;9.154;2023-11-19T11:26:30;0.35;;;0.30;;
25341;SDS011;13298;48.792;9.154;2023-11-19T11:29:37;0.32;;;0.30;;
25341;SDS011;13298;48.792;9.154;2023-11-19T11:32:25;0.38;;;0.32;;
25341;SDS011;13298;48.792;9.154;2023-11-19T11:35:28;4.82;;;0.60;;
25341;SDS011;13298;48.792;9.154;2023-11-19T11:38:01;3.35;;;0.45;;
25341;SDS011;13298;48.792;9.154;2023-11-19T11:40:31;1.27;;;0.47;;
25341;SDS011;13298;48.792;9.154;2023-11-19T11:42:58;0.95;;;0.50;;
25341;SDS011;13298;48.792;9.154;2023-11-19T11:45:37;0.80;;;0.30;;
25341;SDS011;13298;48.792;9.154;2023-11-19T11:48:12;0.85;;;0.50;;
25341;SDS011;13298;48.792;9.154;2023-11-19T11:50:47;2.45;;;0.55;;
25341;SDS011;13298;48.792;9.154;2023-11-19T11:53:25;2.53;;;0.50;;
25341;SDS011;13298;48.792;9.154;2023-11-19T11:55:52;1.15;;;0.50;;
25341;SDS011;13298;48.792;9.154;2023-11-19T12:00:58;1.60;;;0.50;;
25341;SDS011;13298;48.792;9.154;2023-11-19T12:03:27;0.82;;;0.50;;
25341;SDS011;13298;48.792;9.154;2023-11-19T12:05:54;1.15;;;0.50;;
25341;SDS011;13298;48.792;9.154;2023-11-19T12:08:24;0.95;;;0.40;;
25341;SDS011;13298;48.792;9.154;2023-11-19T12:10:52;2.55;;;0.30;;
25341;SDS011;13298;48.792;9.154;2023-11-19T12:13:29;2.30;;;0.60;;
25341;SDS011;13298;48.792;9.154;2023-11-19T12:16:23;2.63;;;0.70;;
25341;SDS011;13298;48.792;9.154;2023-11-19T12:18:49;2.88;;;0.50;;
25341;SDS011;13298;48.792;9.154;2023-11-19T12:21:27;1.58;;;0.40;;
25341;SDS011;13298;48.792;9.154;2023-11-19T12:23:55;0.63;;;0.40;;
25341;SDS011;13298;48.792;9.154;2023-11-19T12:26:34;0.95;;;0.30;;
25341;SDS011;13298;48.792;9.154;2023-11-19T12:29:02;0.95;;;0.57;;
25341;SDS011;13298;48.792;9.154;2023-11-19T12:31:31;3.35;;;0.35;;
25341;SDS011;13298;48.792;9.154;2023-11-19T12:33:57;1.30;;;0.38;;
25341;SDS011;13298;48.792;9.154;2023-11-19T12:36:22;0.30;;;0.30;;
25341;SDS011;13298;48.792;9.154;2023-11-19T12:38:48;1.90;;;0.50;;
25341;SDS011;13298;48.792;9.154;2023-11-19T12:41:14;2.03;;;0.60;;
25341;SDS011;13298;48.792;9.154;2023-11-19T12:43:42;1.60;;;0.57;;
25341;SDS011;13298;48.792;9.154;2023-11-19T12:48:47;3.20;;;0.30;;
25341;SDS011;13298;48.792;9.154;2023-11-19T12:51:14;3.05;;;0.60;;
25341;SDS011;13298;48.792;9.154;2023-11-19T12:53:52;1.30;;;0.30;;
25341;SDS011;13298;48.792;9.154;2023-11-19T12:56:23;1.90;;;0.40;;
25341;SDS011;13298;48.792;9.154;2023-11-19T12:58:49;0.82;;;0.40;;
25341;SDS011;13298;48.792;9.154;2023-11-19T13:01:16;1.48;;;0.68;;
25341;SDS011;13298;48.792;9.154;2023-11-19T13:03:45;4.45;;;0.50;;
25341;SDS011;13298;48.792;9.154;2023-11-19T13:06:12;0.82;;;0.50;;
25341;SDS011;13298;48.792;9.154;2023-11-19T13:08:44;1.33;;;0.32;;
25341;SDS011;13298;48.792;9.154;2023-11-19T13:11:30;1.67;;;0.60;;
25341;SDS011;13298;48.792;9.154;2023-11-19T13:14:02;1.27;;;0.40;;
25341;SDS011;13298;48.792;9.154;2023-11-19T13:16:38;1.85;;;0.40;;
25341;SDS011;13298;48.792;9.154;2023-11-19T13:19:04;0.85;;;0.28;;
25341;SDS011;13298;48.792;9.154;2023-11-19T13:21:30;2.95;;;0.63;;
25341;SDS011;13298;48.792;9.154;2023-11-19T13:23:56;1.00;;;0.50;;
25341;SDS011;13298;48.792;9.154;2023-11-19T13:26:22;1.20;;;0.40;;
25341;SDS011;13298;48.792;9.154;2023-11-19T13:28:48;5.10;;;0.43;;
25341;SDS011;13298;48.792;9.154;2023-11-19T13:31:14;1.63;;;0.40;;
25341;SDS011;13298;48.792;9.154;2023-11-19T13:33:40;1.77;;;0.50;;
25341;SDS011;13298;48.792;9.154;2023-11-19T13:36:06;0.32;;;0.32;;
25341;SDS011;13298;48.792;9.154;2023-11-19T13:38:36;1.85;;;0.40;;
25341;SDS011;13298;48.792;9.154;2023-11-19T13:41:02;1.42;;;0.38;;
25341;SDS011;13298;48.792;9.154;2023-11-19T13:43:33;3.20;;;0.60;;
25341;SDS011;13298;48.792;9.154;2023-11-19T13:45:59;1.90;;;0.32;;
25341;SDS011;13298;48.792;9.154;2023-11-19T13:48:25;0.98;;;0.43;;
25341;SDS011;13298;48.792;9.154;2023-11-19T13:50:52;1.17;;;0.40;;
25341;SDS011;13298;48.792;9.154;2023-11-19T13:53:18;3.83;;;0.47;;
25341;SDS011;13298;48.792;9.154;2023-11-19T13:55:44;4.13;;;0.52;;
25341;SDS011;13298;48.792;9.154;2023-11-19T13:58:10;1.23;;;0.38;;
25341;SDS011;13298;48.792;9.154;2023-11-19T14:00:36;1.83;;;0.30;;
25341;SDS011;13298;48.792;9.154;2023-11-19T14:03:02;2.03;;;0.60;;
25341;SDS011;13298;48.792;9.154;2023-11-19T14:05:28;1.55;;;0.50;;
25341;SDS011;13298;48.792;9.154;2023-11-19T14:07:54;0.57;;;0.32;;
25341;SDS011;13298;48.792;9.154;2023-11-19T14:10:21;3.38;;;0.52;;
25341;SDS011;13298;48.792;9.154;2023-11-19T14:12:48;1.27;;;0.40;;
25341;SDS011;13298;48.792;9.154;2023-11-19T14:15:15;1.00;;;0.70;;
25341;SDS011;13298;48.792;9.154;2023-11-19T14:17:42;0.52;;;0.38;;
25341;SDS011;13298;48.792;9.154;2023-11-19T14:20:08;0.90;;;0.40;;
25341;SDS011;13298;48.792;9.154;2023-11-19T14:22:41;1.80;;;0.40;;
25341;SDS011;13298;48.792;9.154;2023-11-19T14:25:08;1.77;;;0.52;;
25341;SDS011;13298;48.792;9.154;2023-11-19T14:27:36;0.73;;;0.45;;
25341;SDS011;13298;48.792;9.154;2023-11-19T14:30:05;2.58;;;0.43;;
25341;SDS011;13298;48.792;9.154;2023-11-19T14:32:35;2.80;;;0.68;;
25341;SDS011;13298;48.792;9.154;2023-11-19T14:35:01;0.70;;;0.40;;
25341;SDS011;13298;48.792;9.154;2023-11-19T14:37:28;3.58;;;0.50;;
25341;SDS011;13298;48.792;9.154;2023-11-19T14:39:55;1.98;;;0.50;;
25341;SDS011;13298;48.792;9.154;2023-11-19T14:42:22;1.90;;;0.50;;
25341;SDS011;13298;48.792;9.154;2023-11-19T14:44:50;3.20;;;0.52;;
25341;SDS011;13298;48.792;9.154;2023-11-19T14:47:19;2.72;;;0.75;;
25341;SDS011;13298;48.792;9.154;2023-11-19T14:49:45;1.58;;;0.52;;
25341;SDS011;13298;48.792;9.154;2023-11-19T14:52:11;1.75;;;0.60;;
25341;SDS011;13298;48.792;9.154;2023-11-19T14:54:37;0.80;;;0.47;;
25341;SDS011;13298;48.792;9.154;2023-11-19T14:57:05;1.95;;;0.50;;
25341;SDS011;13298;48.792;9.154;2023-11-19T14:59:33;5.18;;;0.65;;
25341;SDS011;13298;48.792;9.154;2023-11-19T15:02:00;0.88;;;0.50;;